PWSweather.com
Personal Weather Stations
Station Observations

YeovilGB

Lat: 50.949, Lon: -2.627

Elevation: 70

Station Type: Vantage Pro

http://www.yeovil-weather.me.uk/

High Low Average
Temperature 52.9°F11.6°C 43.9°F6.6°C 49.2°F9.6°C
Dew Point 50.3°F10.2°C 42.8°F6.0°C 47.5°F8.6°C
Winds 13.8 mph 22.2 kmh Calm Calm 6.0 mph S9.7 kmh S
Wind Gusts 24.2 mph38.9 kmh 1.2 mph1.9 kmh 12.0 mph19.3 kmh
Humidity 97% 91% 94%
Pressure 29.64 in1003.7 mb 29.31 in992.6 mb -
Precipitation 0.14 in3.6 mm - -
Hour Temp Dew Point Humidity Winds Wind Gusts Pressure Precip Precip Rate Daily Precip Total
12:00 AM 43.9°F6.6°C 42.8°F6.0°C 96% 2.3 mph SE3.7 kmh SE 6.9 mph11.1 kmh 29.64 in1003.7 mb - 0.01 in0.3 mm 0.02 in0.5 mm
12:10 AM 44.2°F6.8°C 43.1°F6.2°C 96% 4.6 mph SSE7.4 kmh SSE 8.1 mph13.0 kmh 29.64 in1003.7 mb - 0.01 in0.3 mm 0.02 in0.5 mm
12:20 AM 44.5°F6.9°C 43.4°F6.3°C 96% 1.2 mph SSE1.9 kmh SSE 1.2 mph1.9 kmh 29.64 in1003.7 mb - 0.01 in0.3 mm 0.02 in0.5 mm
12:30 AM 44.8°F7.1°C 43.7°F6.5°C 96% 4.6 mph SSE7.4 kmh SSE 9.2 mph14.8 kmh 29.63 in1003.4 mb - 0.00 in0.0 mm 0.02 in0.5 mm
12:40 AM 45.2°F7.3°C 44.1°F6.7°C 96% 3.5 mph SSE5.6 kmh SSE 8.1 mph13.0 kmh 29.63 in1003.4 mb - 0.01 in0.3 mm 0.03 in0.8 mm
12:50 AM 45.5°F7.5°C 44.4°F6.9°C 96% 8.1 mph SSE13.0 kmh SSE 12.7 mph20.4 kmh 29.62 in1003.0 mb - 0.00 in0.0 mm 0.03 in0.8 mm
01:00 AM 45.9°F7.7°C 45.1°F7.3°C 97% 4.6 mph SSE7.4 kmh SSE 11.5 mph18.5 kmh 29.61 in1002.7 mb - 0.01 in0.3 mm 0.04 in1.0 mm
01:10 AM 46.0°F7.8°C 44.9°F7.2°C 96% 8.1 mph SSE13.0 kmh SSE 12.7 mph20.4 kmh 29.61 in1002.7 mb - 0.00 in0.0 mm 0.04 in1.0 mm
01:20 AM 46.0°F7.8°C 44.9°F7.2°C 96% 5.8 mph S9.3 kmh S 11.5 mph18.5 kmh 29.60 in1002.4 mb - 0.01 in0.3 mm 0.05 in1.3 mm
01:30 AM 46.0°F7.8°C 44.9°F7.2°C 96% 5.8 mph S9.3 kmh S 11.5 mph18.5 kmh 29.60 in1002.4 mb - 0.01 in0.3 mm 0.06 in1.5 mm
01:40 AM 46.0°F7.8°C 44.9°F7.2°C 96% 3.5 mph SSE5.6 kmh SSE 11.5 mph18.5 kmh 29.60 in1002.4 mb - 0.00 in0.0 mm 0.06 in1.5 mm
01:50 AM 46.0°F7.8°C 44.9°F7.2°C 96% 6.9 mph S11.1 kmh S 11.5 mph18.5 kmh 29.59 in1002.0 mb - 0.00 in0.0 mm 0.06 in1.5 mm
02:00 AM 46.0°F7.8°C 44.9°F7.2°C 96% 5.8 mph S9.3 kmh S 10.4 mph16.7 kmh 29.59 in1002.0 mb - 0.00 in0.0 mm 0.06 in1.5 mm
02:10 AM 46.0°F7.8°C 45.0°F7.2°C 96% 5.8 mph SSE9.3 kmh SSE 11.5 mph18.5 kmh 29.58 in1001.7 mb - 0.00 in0.0 mm 0.06 in1.5 mm
02:20 AM 46.1°F7.8°C 45.0°F7.2°C 96% 6.9 mph S11.1 kmh S 11.5 mph18.5 kmh 29.58 in1001.7 mb - 0.00 in0.0 mm 0.06 in1.5 mm
02:30 AM 46.1°F7.8°C 45.0°F7.2°C 96% 6.9 mph S11.1 kmh S 10.4 mph16.7 kmh 29.57 in1001.4 mb - 0.00 in0.0 mm 0.06 in1.5 mm
02:40 AM 46.1°F7.8°C 45.0°F7.2°C 96% 2.3 mph SSE3.7 kmh SSE 9.2 mph14.8 kmh 29.57 in1001.4 mb - 0.00 in0.0 mm 0.06 in1.5 mm
02:50 AM 46.2°F7.9°C 45.1°F7.3°C 96% 8.1 mph SSE13.0 kmh SSE 13.8 mph22.2 kmh 29.57 in1001.4 mb - 0.00 in0.0 mm 0.06 in1.5 mm
03:00 AM 46.3°F7.9°C 45.2°F7.3°C 96% 4.6 mph S7.4 kmh S 8.1 mph13.0 kmh 29.56 in1001.0 mb - 0.00 in0.0 mm 0.06 in1.5 mm
03:10 AM 46.4°F8.0°C 45.3°F7.4°C 96% 6.9 mph S11.1 kmh S 10.4 mph16.7 kmh 29.56 in1001.0 mb - 0.00 in0.0 mm 0.06 in1.5 mm
03:20 AM 46.4°F8.0°C 45.3°F7.4°C 96% 2.3 mph SSE3.7 kmh SSE 11.5 mph18.5 kmh 29.55 in1000.7 mb - 0.01 in0.3 mm 0.06 in1.5 mm
03:30 AM 46.5°F8.1°C 45.4°F7.4°C 96% 5.8 mph S9.3 kmh S 8.1 mph13.0 kmh 29.55 in1000.7 mb - 0.00 in0.0 mm 0.06 in1.5 mm
03:40 AM 46.5°F8.1°C 45.4°F7.4°C 96% 6.9 mph S11.1 kmh S 6.9 mph11.1 kmh 29.54 in1000.3 mb - 0.00 in0.0 mm 0.06 in1.5 mm
03:50 AM 46.4°F8.0°C 45.3°F7.4°C 96% 5.8 mph SSE9.3 kmh SSE 11.5 mph18.5 kmh 29.53 in1000.0 mb - 0.00 in0.0 mm 0.06 in1.5 mm
04:00 AM 46.5°F8.1°C 45.1°F7.3°C 95% 8.1 mph SSE13.0 kmh SSE 11.5 mph18.5 kmh 29.53 in1000.0 mb - 0.00 in0.0 mm 0.06 in1.5 mm
04:10 AM 46.4°F8.0°C 45.0°F7.2°C 95% 4.6 mph S7.4 kmh S 12.7 mph20.4 kmh 29.53 in1000.0 mb - 0.00 in0.0 mm 0.06 in1.5 mm
04:20 AM 46.4°F8.0°C 45.0°F7.2°C 95% 8.1 mph S13.0 kmh S 11.5 mph18.5 kmh 29.52 in999.7 mb - 0.00 in0.0 mm 0.06 in1.5 mm
04:30 AM 46.5°F8.1°C 45.1°F7.3°C 95% 3.5 mph S5.6 kmh S 8.1 mph13.0 kmh 29.52 in999.7 mb - 0.00 in0.0 mm 0.06 in1.5 mm
04:40 AM 46.5°F8.1°C 45.1°F7.3°C 95% 8.1 mph S13.0 kmh S 12.7 mph20.4 kmh 29.52 in999.7 mb - 0.00 in0.0 mm 0.06 in1.5 mm
04:50 AM 46.7°F8.2°C 45.3°F7.4°C 95% 5.8 mph S9.3 kmh S 10.4 mph16.7 kmh 29.51 in999.3 mb - 0.00 in0.0 mm 0.06 in1.5 mm
05:00 AM 46.7°F8.2°C 45.3°F7.4°C 95% 8.1 mph S13.0 kmh S 11.5 mph18.5 kmh 29.51 in999.3 mb - 0.00 in0.0 mm 0.06 in1.5 mm
05:10 AM 46.8°F8.2°C 45.4°F7.4°C 95% 5.8 mph S9.3 kmh S 12.7 mph20.4 kmh 29.51 in999.3 mb - 0.00 in0.0 mm 0.06 in1.5 mm
05:20 AM 46.8°F8.2°C 45.4°F7.4°C 95% 4.6 mph SSW7.4 kmh SSW 9.2 mph14.8 kmh 29.50 in999.0 mb - 0.00 in0.0 mm 0.06 in1.5 mm
05:30 AM 46.8°F8.2°C 45.4°F7.4°C 95% 6.9 mph SSE11.1 kmh SSE 10.4 mph16.7 kmh 29.50 in999.0 mb - 0.00 in0.0 mm 0.06 in1.5 mm
05:40 AM 46.8°F8.2°C 45.4°F7.4°C 95% 5.8 mph S9.3 kmh S 10.4 mph16.7 kmh 29.50 in999.0 mb - 0.00 in0.0 mm 0.06 in1.5 mm
05:50 AM 46.9°F8.3°C 45.5°F7.5°C 95% 2.3 mph S3.7 kmh S 9.2 mph14.8 kmh 29.51 in999.3 mb - 0.00 in0.0 mm 0.06 in1.5 mm
06:00 AM 46.9°F8.3°C 45.5°F7.5°C 95% 3.5 mph SSE5.6 kmh SSE 15.0 mph24.1 kmh 29.50 in999.0 mb - 0.00 in0.0 mm 0.06 in1.5 mm
06:10 AM 47.0°F8.3°C 45.6°F7.6°C 95% 4.6 mph S7.4 kmh S 9.2 mph14.8 kmh 29.49 in998.6 mb - 0.00 in0.0 mm 0.06 in1.5 mm
06:20 AM 47.0°F8.3°C 45.6°F7.6°C 95% 5.8 mph SSE9.3 kmh SSE 12.7 mph20.4 kmh 29.49 in998.6 mb - 0.01 in0.3 mm 0.07 in1.8 mm
06:30 AM 47.1°F8.4°C 45.7°F7.6°C 95% 2.3 mph S3.7 kmh S 9.2 mph14.8 kmh 29.48 in998.3 mb - 0.00 in0.0 mm 0.07 in1.8 mm
06:40 AM 47.1°F8.4°C 45.7°F7.6°C 95% 4.6 mph S7.4 kmh S 11.5 mph18.5 kmh 29.48 in998.3 mb - 0.00 in0.0 mm 0.07 in1.8 mm
06:50 AM 47.1°F8.4°C 45.7°F7.6°C 95% 5.8 mph S9.3 kmh S 11.5 mph18.5 kmh 29.48 in998.3 mb - 0.00 in0.0 mm 0.07 in1.8 mm
07:00 AM 47.2°F8.4°C 45.8°F7.7°C 95% 8.1 mph S13.0 kmh S 13.8 mph22.2 kmh 29.48 in998.3 mb - 0.00 in0.0 mm 0.07 in1.8 mm
07:10 AM 47.3°F8.5°C 45.9°F7.7°C 95% 8.1 mph S13.0 kmh S 12.7 mph20.4 kmh 29.47 in998.0 mb - 0.00 in0.0 mm 0.07 in1.8 mm
07:20 AM 47.5°F8.6°C 46.1°F7.8°C 95% 6.9 mph S11.1 kmh S 12.7 mph20.4 kmh 29.47 in998.0 mb - 0.00 in0.0 mm 0.07 in1.8 mm
07:30 AM 47.6°F8.7°C 46.0°F7.8°C 94% 9.2 mph S14.8 kmh S 15.0 mph24.1 kmh 29.47 in998.0 mb - 0.00 in0.0 mm 0.07 in1.8 mm
07:40 AM 47.7°F8.7°C 46.1°F7.8°C 94% 8.1 mph S13.0 kmh S 11.5 mph18.5 kmh 29.47 in998.0 mb - 0.00 in0.0 mm 0.07 in1.8 mm
07:50 AM 47.8°F8.8°C 46.1°F7.8°C 94% 8.1 mph S13.0 kmh S 11.5 mph18.5 kmh 29.47 in998.0 mb - 0.00 in0.0 mm 0.07 in1.8 mm
08:00 AM 47.8°F8.8°C 46.2°F7.9°C 94% 8.1 mph S13.0 kmh S 11.5 mph18.5 kmh 29.46 in997.6 mb - 0.00 in0.0 mm 0.07 in1.8 mm
08:10 AM 47.8°F8.8°C 46.1°F7.8°C 94% 4.6 mph S7.4 kmh S 9.2 mph14.8 kmh 29.46 in997.6 mb - 0.01 in0.3 mm 0.08 in2.0 mm
08:20 AM 47.8°F8.8°C 46.4°F8.0°C 95% 2.3 mph SSE3.7 kmh SSE 5.8 mph9.3 kmh 29.45 in997.3 mb - 0.00 in0.0 mm 0.08 in2.0 mm
08:30 AM 47.9°F8.8°C 46.5°F8.1°C 95% 3.5 mph S5.6 kmh S 8.1 mph13.0 kmh 29.45 in997.3 mb - 0.01 in0.3 mm 0.09 in2.3 mm
08:40 AM 48.1°F8.9°C 46.7°F8.2°C 95% 6.9 mph S11.1 kmh S 12.7 mph20.4 kmh 29.45 in997.3 mb - 0.00 in0.0 mm 0.09 in2.3 mm
08:50 AM 48.2°F9.0°C 46.8°F8.2°C 95% 6.9 mph SSE11.1 kmh SSE 10.4 mph16.7 kmh 29.45 in997.3 mb - 0.01 in0.3 mm 0.09 in2.3 mm
09:00 AM 48.3°F9.1°C 47.0°F8.3°C 95% 3.5 mph S5.6 kmh S 11.5 mph18.5 kmh 29.44 in997.0 mb - 0.00 in0.0 mm 0.09 in2.3 mm
09:10 AM 48.4°F9.1°C 47.0°F8.3°C 95% 3.5 mph SE5.6 kmh SE 10.4 mph16.7 kmh 29.44 in997.0 mb - 0.00 in0.0 mm 0.09 in2.3 mm
09:20 AM 48.6°F9.2°C 47.5°F8.6°C 96% 11.5 mph SSE18.5 kmh SSE 15.0 mph24.1 kmh 29.45 in997.3 mb - 0.00 in0.0 mm 0.09 in2.3 mm
09:30 AM 48.7°F9.3°C 47.3°F8.5°C 95% 4.6 mph S7.4 kmh S 11.5 mph18.5 kmh 29.45 in997.3 mb - 0.00 in0.0 mm 0.09 in2.3 mm
09:40 AM 48.8°F9.3°C 47.4°F8.6°C 95% 1.2 mph S1.9 kmh S 10.4 mph16.7 kmh 29.44 in997.0 mb - 0.00 in0.0 mm 0.09 in2.3 mm
09:50 AM 49.0°F9.4°C 47.9°F8.8°C 96% 2.3 mph S3.7 kmh S 10.4 mph16.7 kmh 29.44 in997.0 mb - 0.00 in0.0 mm 0.09 in2.3 mm
10:00 AM 49.1°F9.5°C 47.7°F8.7°C 95% 6.9 mph S11.1 kmh S 13.8 mph22.2 kmh 29.44 in997.0 mb - 0.00 in0.0 mm 0.09 in2.3 mm
10:10 AM 49.2°F9.6°C 47.8°F8.8°C 95% 11.5 mph S18.5 kmh S 20.7 mph33.3 kmh 29.43 in996.6 mb - 0.00 in0.0 mm 0.09 in2.3 mm
10:20 AM 49.5°F9.7°C 48.1°F8.9°C 95% 8.1 mph S13.0 kmh S 13.8 mph22.2 kmh 29.43 in996.6 mb - 0.00 in0.0 mm 0.09 in2.3 mm
10:30 AM 49.6°F9.8°C 48.2°F9.0°C 95% 6.9 mph S11.1 kmh S 11.5 mph18.5 kmh 29.43 in996.6 mb - 0.00 in0.0 mm 0.09 in2.3 mm
10:40 AM 49.6°F9.8°C 48.2°F9.0°C 95% 4.6 mph S7.4 kmh S 13.8 mph22.2 kmh 29.42 in996.3 mb - 0.00 in0.0 mm 0.09 in2.3 mm
10:50 AM 49.7°F9.8°C 48.3°F9.1°C 95% 9.2 mph S14.8 kmh S 18.4 mph29.6 kmh 29.42 in996.3 mb - 0.00 in0.0 mm 0.09 in2.3 mm
11:00 AM 49.8°F9.9°C 48.4°F9.1°C 95% 4.6 mph S7.4 kmh S 9.2 mph14.8 kmh 29.42 in996.3 mb - 0.00 in0.0 mm 0.09 in2.3 mm
11:10 AM 49.9°F9.9°C 48.5°F9.2°C 95% 8.1 mph S13.0 kmh S 11.5 mph18.5 kmh 29.41 in995.9 mb - 0.00 in0.0 mm 0.09 in2.3 mm
11:20 AM 50.1°F10.1°C 48.7°F9.3°C 95% 4.6 mph S7.4 kmh S 11.5 mph18.5 kmh 29.41 in995.9 mb - 0.00 in0.0 mm 0.09 in2.3 mm
11:30 AM 50.4°F10.2°C 48.7°F9.3°C 94% 6.9 mph S11.1 kmh S 11.5 mph18.5 kmh 29.40 in995.6 mb - 0.00 in0.0 mm 0.09 in2.3 mm
11:40 AM 50.5°F10.3°C 48.9°F9.4°C 94% 2.3 mph S3.7 kmh S 3.5 mph5.6 kmh 29.40 in995.6 mb - 0.00 in0.0 mm 0.09 in2.3 mm
11:50 AM 50.6°F10.3°C 48.9°F9.4°C 94% 10.4 mph SSW16.7 kmh SSW 11.5 mph18.5 kmh 29.40 in995.6 mb - 0.00 in0.0 mm 0.09 in2.3 mm
12:00 PM 50.8°F10.4°C 49.1°F9.5°C 94% 3.5 mph S5.6 kmh S 1.2 mph1.9 kmh 29.40 in995.6 mb - 0.00 in0.0 mm 0.09 in2.3 mm
12:10 PM 50.9°F10.5°C 49.2°F9.6°C 94% 3.5 mph SSE5.6 kmh SSE 11.5 mph18.5 kmh 29.39 in995.3 mb - 0.00 in0.0 mm 0.09 in2.3 mm
12:20 PM 51.0°F10.6°C 49.3°F9.6°C 94% 10.4 mph S16.7 kmh S 16.1 mph25.9 kmh 29.39 in995.3 mb - 0.00 in0.0 mm 0.09 in2.3 mm
12:30 PM 51.1°F10.6°C 49.4°F9.7°C 94% 5.8 mph S9.3 kmh S 9.2 mph14.8 kmh 29.39 in995.3 mb - 0.00 in0.0 mm 0.09 in2.3 mm
12:40 PM 51.1°F10.6°C 49.4°F9.7°C 94% 3.5 mph S5.6 kmh S 10.4 mph16.7 kmh 29.39 in995.3 mb - 0.00 in0.0 mm 0.09 in2.3 mm
12:50 PM 51.2°F10.7°C 49.6°F9.8°C 94% 6.9 mph S11.1 kmh S 11.5 mph18.5 kmh 29.39 in995.3 mb - 0.00 in0.0 mm 0.09 in2.3 mm
01:00 PM 51.5°F10.8°C 49.8°F9.9°C 94% 8.1 mph S13.0 kmh S 12.7 mph20.4 kmh 29.39 in995.3 mb - 0.00 in0.0 mm 0.09 in2.3 mm
01:10 PM 51.6°F10.9°C 49.9°F9.9°C 94% 6.9 mph SSW11.1 kmh SSW 11.5 mph18.5 kmh 29.38 in994.9 mb - 0.00 in0.0 mm 0.09 in2.3 mm
01:20 PM 51.7°F10.9°C 49.7°F9.8°C 93% 8.1 mph S13.0 kmh S 12.7 mph20.4 kmh 29.38 in994.9 mb - 0.00 in0.0 mm 0.09 in2.3 mm
01:30 PM 51.9°F11.1°C 50.0°F10.0°C 93% 5.8 mph S9.3 kmh S 10.4 mph16.7 kmh 29.38 in994.9 mb - 0.00 in0.0 mm 0.09 in2.3 mm
01:40 PM 52.2°F11.2°C 50.2°F10.1°C 93% 13.8 mph S22.2 kmh S 24.2 mph38.9 kmh 29.38 in994.9 mb - 0.01 in0.3 mm 0.10 in2.5 mm
01:50 PM 52.2°F11.2°C 49.9°F9.9°C 92% 9.2 mph S14.8 kmh S 12.7 mph20.4 kmh 29.37 in994.6 mb - 0.01 in0.3 mm 0.10 in2.5 mm
02:00 PM 52.4°F11.3°C 50.1°F10.1°C 92% 10.4 mph S16.7 kmh S 12.7 mph20.4 kmh 29.37 in994.6 mb - 0.00 in0.0 mm 0.10 in2.5 mm
02:10 PM 52.6°F11.4°C 50.0°F10.0°C 91% 11.5 mph S18.5 kmh S 13.8 mph22.2 kmh 29.37 in994.6 mb - 0.00 in0.0 mm 0.10 in2.5 mm
02:20 PM 52.8°F11.6°C 50.3°F10.2°C 91% 8.1 mph S13.0 kmh S 16.1 mph25.9 kmh 29.36 in994.2 mb - 0.00 in0.0 mm 0.10 in2.5 mm
02:30 PM 52.7°F11.5°C 50.2°F10.1°C 91% 11.5 mph S18.5 kmh S 18.4 mph29.6 kmh 29.36 in994.2 mb - 0.00 in0.0 mm 0.10 in2.5 mm
02:40 PM 52.9°F11.6°C 50.3°F10.2°C 91% 9.2 mph S14.8 kmh S 15.0 mph24.1 kmh 29.36 in994.2 mb - 0.00 in0.0 mm 0.10 in2.5 mm
02:50 PM 52.9°F11.6°C 50.3°F10.2°C 91% 10.4 mph SSW16.7 kmh SSW 13.8 mph22.2 kmh 29.36 in994.2 mb - 0.00 in0.0 mm 0.10 in2.5 mm
03:00 PM 52.7°F11.5°C 50.1°F10.1°C 91% 9.2 mph S14.8 kmh S 15.0 mph24.1 kmh 29.36 in994.2 mb - 0.00 in0.0 mm 0.10 in2.5 mm
03:10 PM 52.6°F11.4°C 50.0°F10.0°C 91% 10.4 mph S16.7 kmh S 18.4 mph29.6 kmh 29.36 in994.2 mb - 0.00 in0.0 mm 0.10 in2.5 mm
03:20 PM 52.4°F11.3°C 49.8°F9.9°C 91% 5.8 mph S9.3 kmh S 13.8 mph22.2 kmh 29.35 in993.9 mb - 0.00 in0.0 mm 0.10 in2.5 mm
03:30 PM 52.2°F11.2°C 49.7°F9.8°C 91% 5.8 mph SSW9.3 kmh SSW 11.5 mph18.5 kmh 29.35 in993.9 mb - 0.00 in0.0 mm 0.10 in2.5 mm
03:40 PM 52.1°F11.2°C 49.8°F9.9°C 92% 6.9 mph S11.1 kmh S 11.5 mph18.5 kmh 29.35 in993.9 mb - 0.00 in0.0 mm 0.10 in2.5 mm
03:50 PM 51.9°F11.1°C 49.7°F9.8°C 92% 5.8 mph S9.3 kmh S 10.4 mph16.7 kmh 29.35 in993.9 mb - 0.00 in0.0 mm 0.10 in2.5 mm
04:00 PM 51.9°F11.1°C 49.6°F9.8°C 92% 6.9 mph SSW11.1 kmh SSW 11.5 mph18.5 kmh 29.35 in993.9 mb - 0.00 in0.0 mm 0.10 in2.5 mm
04:10 PM 52.0°F11.1°C 49.8°F9.9°C 92% 5.8 mph S9.3 kmh S 12.7 mph20.4 kmh 29.34 in993.6 mb - 0.00 in0.0 mm 0.10 in2.5 mm
04:20 PM 52.1°F11.2°C 49.8°F9.9°C 92% 4.6 mph SSW7.4 kmh SSW 10.4 mph16.7 kmh 29.34 in993.6 mb - 0.00 in0.0 mm 0.10 in2.5 mm
04:30 PM 52.0°F11.1°C 49.5°F9.7°C 91% 8.1 mph S13.0 kmh S 16.1 mph25.9 kmh 29.34 in993.6 mb - 0.00 in0.0 mm 0.10 in2.5 mm
04:40 PM 52.0°F11.1°C 49.4°F9.7°C 91% 6.9 mph S11.1 kmh S 11.5 mph18.5 kmh 29.34 in993.6 mb - 0.00 in0.0 mm 0.10 in2.5 mm
04:50 PM 52.0°F11.1°C 49.8°F9.9°C 92% 5.8 mph S9.3 kmh S 11.5 mph18.5 kmh 29.34 in993.6 mb - 0.00 in0.0 mm 0.10 in2.5 mm
05:10 PM 52.1°F11.2°C 49.8°F9.9°C 92% 5.8 mph SSW9.3 kmh SSW 12.7 mph20.4 kmh 29.34 in993.6 mb - 0.00 in0.0 mm 0.10 in2.5 mm
05:20 PM 51.9°F11.1°C 49.4°F9.7°C 91% 8.1 mph S13.0 kmh S 12.7 mph20.4 kmh 29.34 in993.6 mb - 0.00 in0.0 mm 0.10 in2.5 mm
05:30 PM 51.8°F11.0°C 49.3°F9.6°C 91% 2.3 mph S3.7 kmh S 11.5 mph18.5 kmh 29.34 in993.6 mb - 0.00 in0.0 mm 0.10 in2.5 mm
05:40 PM 51.7°F10.9°C 49.5°F9.7°C 92% 8.1 mph S13.0 kmh S 12.7 mph20.4 kmh 29.34 in993.6 mb - 0.00 in0.0 mm 0.10 in2.5 mm
05:50 PM 51.5°F10.8°C 49.3°F9.6°C 92% 9.2 mph S14.8 kmh S 18.4 mph29.6 kmh 29.33 in993.2 mb - 0.00 in0.0 mm 0.10 in2.5 mm
06:00 PM 51.3°F10.7°C 49.1°F9.5°C 92% 9.2 mph S14.8 kmh S 19.6 mph31.5 kmh 29.34 in993.6 mb - 0.00 in0.0 mm 0.10 in2.5 mm
06:10 PM 51.1°F10.6°C 49.1°F9.5°C 93% 3.5 mph S5.6 kmh S 9.2 mph14.8 kmh 29.33 in993.2 mb - 0.00 in0.0 mm 0.10 in2.5 mm
06:20 PM 51.0°F10.6°C 49.0°F9.4°C 93% 3.5 mph SSW5.6 kmh SSW 10.4 mph16.7 kmh 29.33 in993.2 mb - 0.00 in0.0 mm 0.10 in2.5 mm
06:30 PM 50.9°F10.5°C 48.9°F9.4°C 93% 8.1 mph S13.0 kmh S 12.7 mph20.4 kmh 29.33 in993.2 mb - 0.00 in0.0 mm 0.10 in2.5 mm
06:40 PM 50.8°F10.4°C 48.8°F9.3°C 93% 5.8 mph SSW9.3 kmh SSW 11.5 mph18.5 kmh 29.33 in993.2 mb - 0.00 in0.0 mm 0.10 in2.5 mm
06:50 PM 50.7°F10.4°C 48.8°F9.3°C 93% 5.8 mph S9.3 kmh S 13.8 mph22.2 kmh 29.33 in993.2 mb - 0.00 in0.0 mm 0.10 in2.5 mm
07:00 PM 50.7°F10.4°C 48.7°F9.3°C 93% 9.2 mph S14.8 kmh S 18.4 mph29.6 kmh 29.33 in993.2 mb - 0.00 in0.0 mm 0.10 in2.5 mm
07:10 PM 50.7°F10.4°C 48.7°F9.3°C 93% 3.5 mph SSW5.6 kmh SSW 11.5 mph18.5 kmh 29.33 in993.2 mb - 0.00 in0.0 mm 0.10 in2.5 mm
07:20 PM 50.6°F10.3°C 48.7°F9.3°C 93% 3.5 mph S5.6 kmh S 8.1 mph13.0 kmh 29.33 in993.2 mb - 0.00 in0.0 mm 0.10 in2.5 mm
07:30 PM 50.6°F10.3°C 48.7°F9.3°C 93% 2.3 mph S3.7 kmh S 6.9 mph11.1 kmh 29.33 in993.2 mb - 0.00 in0.0 mm 0.10 in2.5 mm
07:40 PM 50.6°F10.3°C 48.9°F9.4°C 94% 6.9 mph S11.1 kmh S 13.8 mph22.2 kmh 29.33 in993.2 mb - 0.00 in0.0 mm 0.10 in2.5 mm
07:50 PM 50.6°F10.3°C 48.9°F9.4°C 94% 6.9 mph S11.1 kmh S 11.5 mph18.5 kmh 29.33 in993.2 mb - 0.00 in0.0 mm 0.10 in2.5 mm
08:00 PM 50.5°F10.3°C 48.8°F9.3°C 94% 1.2 mph SSW1.9 kmh SSW 1.2 mph1.9 kmh 29.33 in993.2 mb - 0.00 in0.0 mm 0.10 in2.5 mm
08:10 PM 50.2°F10.1°C 48.6°F9.2°C 94% 3.5 mph S5.6 kmh S 5.8 mph9.3 kmh 29.33 in993.2 mb - 0.00 in0.0 mm 0.10 in2.5 mm
08:20 PM 50.2°F10.1°C 48.5°F9.2°C 94% Calm Calm 4.6 mph7.4 kmh 29.33 in993.2 mb - 0.00 in0.0 mm 0.10 in2.5 mm
08:30 PM 50.1°F10.1°C 48.4°F9.1°C 94% 1.2 mph S1.9 kmh S 10.4 mph16.7 kmh 29.33 in993.2 mb - 0.00 in0.0 mm 0.10 in2.5 mm
08:40 PM 50.1°F10.1°C 48.4°F9.1°C 94% 3.5 mph S5.6 kmh S 9.2 mph14.8 kmh 29.33 in993.2 mb - 0.00 in0.0 mm 0.10 in2.5 mm
08:50 PM 50.2°F10.1°C 48.5°F9.2°C 94% 1.2 mph S1.9 kmh S 5.8 mph9.3 kmh 29.33 in993.2 mb - 0.00 in0.0 mm 0.10 in2.5 mm
09:00 PM 50.4°F10.2°C 48.7°F9.3°C 94% 4.6 mph S7.4 kmh S 11.5 mph18.5 kmh 29.34 in993.6 mb - 0.02 in0.5 mm 0.12 in3.0 mm
09:10 PM 50.0°F10.0°C 48.4°F9.1°C 94% 6.9 mph S11.1 kmh S 13.8 mph22.2 kmh 29.33 in993.2 mb - 0.01 in0.3 mm 0.13 in3.3 mm
09:20 PM 49.7°F9.8°C 48.0°F8.9°C 94% 6.9 mph S11.1 kmh S 11.5 mph18.5 kmh 29.33 in993.2 mb - 0.00 in0.0 mm 0.13 in3.3 mm
09:30 PM 49.4°F9.7°C 47.7°F8.7°C 94% 3.5 mph S5.6 kmh S 9.2 mph14.8 kmh 29.33 in993.2 mb - 0.00 in0.0 mm 0.13 in3.3 mm
09:40 PM 49.4°F9.7°C 48.0°F8.9°C 95% 5.8 mph S9.3 kmh S 11.5 mph18.5 kmh 29.33 in993.2 mb - 0.00 in0.0 mm 0.13 in3.3 mm
09:50 PM 49.5°F9.7°C 48.1°F8.9°C 95% 1.2 mph S1.9 kmh S 11.5 mph18.5 kmh 29.32 in992.9 mb - 0.01 in0.3 mm 0.13 in3.3 mm
10:00 PM 49.6°F9.8°C 48.2°F9.0°C 95% 4.6 mph S7.4 kmh S 9.2 mph14.8 kmh 29.32 in992.9 mb - 0.01 in0.3 mm 0.13 in3.3 mm
10:10 PM 49.6°F9.8°C 48.2°F9.0°C 95% 5.8 mph S9.3 kmh S 11.5 mph18.5 kmh 29.32 in992.9 mb - 0.00 in0.0 mm 0.13 in3.3 mm
10:20 PM 49.6°F9.8°C 48.6°F9.2°C 96% 5.8 mph S9.3 kmh S 12.7 mph20.4 kmh 29.32 in992.9 mb - 0.01 in0.3 mm 0.14 in3.6 mm
10:30 PM 49.8°F9.9°C 48.7°F9.3°C 96% 5.8 mph S9.3 kmh S 15.0 mph24.1 kmh 29.32 in992.9 mb - 0.00 in0.0 mm 0.14 in3.6 mm
10:40 PM 50.0°F10.0°C 48.6°F9.2°C 95% 5.8 mph SSW9.3 kmh SSW 8.1 mph13.0 kmh 29.32 in992.9 mb - 0.00 in0.0 mm 0.14 in3.6 mm
10:50 PM 50.1°F10.1°C 48.7°F9.3°C 95% 6.9 mph S11.1 kmh S 10.4 mph16.7 kmh 29.31 in992.6 mb - 0.00 in0.0 mm 0.14 in3.6 mm
11:00 PM 50.1°F10.1°C 48.7°F9.3°C 95% 9.2 mph S14.8 kmh S 19.6 mph31.5 kmh 29.32 in992.9 mb - 0.01 in0.3 mm 0.21 in5.3 mm
11:10 PM 50.1°F10.1°C 48.7°F9.3°C 95% 9.2 mph S14.8 kmh S 15.0 mph24.1 kmh 29.31 in992.6 mb - 0.00 in0.0 mm 0.21 in5.3 mm
11:20 PM 50.1°F10.1°C 48.7°F9.3°C 95% 5.8 mph SSW9.3 kmh SSW 10.4 mph16.7 kmh 29.31 in992.6 mb - 0.00 in0.0 mm 0.21 in5.3 mm
11:30 PM 50.1°F10.1°C 48.7°F9.3°C 95% 6.9 mph S11.1 kmh S 12.7 mph20.4 kmh 29.32 in992.9 mb - 0.00 in0.0 mm 0.21 in5.3 mm
11:40 PM 50.1°F10.1°C 48.7°F9.3°C 95% 3.5 mph SSW5.6 kmh SSW 8.1 mph13.0 kmh 29.31 in992.6 mb - 0.00 in0.0 mm 0.21 in5.3 mm
11:50 PM 50.1°F10.1°C 48.7°F9.3°C 95% 2.3 mph S3.7 kmh S 10.4 mph16.7 kmh 29.31 in992.6 mb - 0.00 in0.0 mm 0.21 in5.3 mm